Time;durP1;ratioP1;P1;durP2;ratioP2;P2;SDS_P1;SDS_P2;PMS_P1;PMS_P2;Temp;Humidity;BMP_temperature;BMP_pressure;BME280_temperature;BME280_humidity;BME280_pressure;Samples;Min_cycle;Max_cycle;Signal;HPM_P1;HPM_P2
2021/10/18 00:00:08;;;;;;;21.67;11.55;;;;;;;9.24;97.87;100741.25;5037543;28;20076;-69
2021/10/18 00:02:37;;;;;;;18.10;12.23;;;;;;;9.15;98.25;100739.88;5037449;28;20063;-70
2021/10/18 00:05:10;;;;;;;14.02;11.48;;;;;;;9.12;98.68;100744.47;5037597;28;20385;-70
2021/10/18 00:07:37;;;;;;;17.52;11.48;;;;;;;9.03;98.80;100737.75;5037386;28;20071;-71
2021/10/18 00:10:06;;;;;;;17.83;12.10;;;;;;;9.04;98.81;100748.34;5036658;28;20375;-71
2021/10/18 00:12:34;;;;;;;21.98;12.25;;;;;;;8.94;99.02;100747.91;5037081;28;20095;-70
2021/10/18 00:15:03;;;;;;;14.93;11.48;;;;;;;8.83;99.77;100737.72;5036333;28;20474;-70
2021/10/18 00:17:30;;;;;;;17.60;11.70;;;;;;;8.83;99.48;100732.41;5037524;28;20077;-71
2021/10/18 00:19:56;;;;;;;24.58;11.52;;;;;;;8.78;99.53;100725.56;5036149;28;20046;-71
2021/10/18 00:22:24;;;;;;;20.02;12.38;;;;;;;8.66;100.00;100726.97;5037087;28;20048;-71
2021/10/18 00:24:51;;;;;;;18.08;12.10;;;;;;;8.64;100.00;100728.81;5036178;28;20038;-71
2021/10/18 00:27:17;;;;;;;17.00;11.98;;;;;;;8.50;100.00;100718.78;5037037;28;20053;-71
2021/10/18 00:29:44;;;;;;;20.70;11.82;;;;;;;8.46;100.00;100726.03;5036142;28;20068;-71
2021/10/18 00:32:11;;;;;;;19.27;12.73;;;;;;;8.43;100.00;100728.78;5036955;28;20049;-70
2021/10/18 00:34:38;;;;;;;24.40;13.82;;;;;;;8.38;100.00;100734.31;5035840;28;20053;-71
2021/10/18 00:37:04;;;;;;;21.60;13.30;;;;;;;8.31;100.00;100729.31;5036929;28;20308;-70
2021/10/18 00:39:31;;;;;;;18.30;11.93;;;;;;;8.27;100.00;100726.78;5035771;28;20449;-70
2021/10/18 00:41:58;;;;;;;17.10;12.75;;;;;;;8.26;100.00;100742.81;5036406;28;20083;-71
2021/10/18 00:44:25;;;;;;;20.00;12.85;;;;;;;8.21;100.00;100748.31;5036202;28;20045;-70
2021/10/18 00:46:52;;;;;;;19.52;12.77;;;;;;;8.18;100.00;100750.25;5036791;28;20115;-70
2021/10/18 00:49:19;;;;;;;18.50;12.65;;;;;;;8.13;100.00;100740.66;5035606;28;20111;-70
2021/10/18 00:51:46;;;;;;;19.70;12.48;;;;;;;8.12;100.00;100735.44;5035584;28;20042;-71
2021/10/18 00:54:12;;;;;;;19.50;12.50;;;;;;;8.10;100.00;100737.25;5002769;28;20073;-71
2021/10/18 00:56:40;;;;;;;18.83;12.23;;;;;;;8.14;99.80;100731.78;5035287;28;20045;-71
2021/10/18 00:59:07;;;;;;;17.52;12.80;;;;;;;8.04;100.00;100734.84;5036324;28;20045;-71
2021/10/18 01:01:35;;;;;;;19.17;12.40;;;;;;;7.98;100.00;100728.00;5036456;28;20123;-70
2021/10/18 01:04:03;;;;;;;18.52;11.48;;;;;;;7.94;100.00;100729.03;5035283;28;20103;-70
2021/10/18 01:06:30;;;;;;;18.40;12.95;;;;;;;7.87;100.00;100715.16;5035253;28;20041;-70
2021/10/18 01:08:57;;;;;;;19.75;12.70;;;;;;;7.77;100.00;100700.50;5036151;28;20427;-70
2021/10/18 01:11:24;;;;;;;17.70;12.48;;;;;;;7.92;100.00;100723.81;5035297;28;20049;-70
2021/10/18 01:13:51;;;;;;;17.55;12.50;;;;;;;7.88;100.00;100725.75;5035833;28;20435;-71
2021/10/18 01:16:18;;;;;;;20.05;13.18;;;;;;;7.86;100.00;100729.38;5036182;28;20351;-71
2021/10/18 01:18:44;;;;;;;20.77;12.98;;;;;;;7.74;100.00;100722.78;5034750;28;20060;-71
2021/10/18 01:21:11;;;;;;;19.63;13.05;;;;;;;7.77;100.00;100737.69;5034918;28;20049;-71
2021/10/18 01:23:38;;;;;;;18.05;12.23;;;;;;;7.72;100.00;100744.09;5035949;28;20112;-71
2021/10/18 01:26:05;;;;;;;19.33;13.57;;;;;;;7.73;100.00;100747.59;5034976;28;20045;-71
2021/10/18 01:28:32;;;;;;;20.23;13.05;;;;;;;7.65;100.00;100742.59;5018551;28;20096;-71
2021/10/18 01:30:59;;;;;;;20.33;13.45;;;;;;;7.59;100.00;100742.84;5035830;28;20056;-71
2021/10/18 01:33:26;;;;;;;19.10;12.88;;;;;;;7.61;100.00;100759.56;5034566;28;20052;-70
2021/10/18 01:35:52;;;;;;;18.45;13.50;;;;;;;7.58;100.00;100744.63;5034721;28;20041;-71
2021/10/18 01:38:19;;;;;;;16.40;12.80;;;;;;;7.53;100.00;100745.72;5034603;28;20428;-71
2021/10/18 01:40:46;;;;;;;22.92;13.45;;;;;;;7.54;100.00;100743.03;5035693;28;20097;-70
2021/10/18 01:43:13;;;;;;;19.20;13.02;;;;;;;7.50;100.00;100751.16;5035967;28;20041;-70
2021/10/18 01:45:40;;;;;;;19.60;12.85;;;;;;;7.43;100.00;100745.22;5035444;28;20049;-70
2021/10/18 01:48:06;;;;;;;18.35;12.35;;;;;;;7.39;100.00;100741.81;5035629;28;20050;-70
2021/10/18 01:50:33;;;;;;;20.05;13.50;;;;;;;7.33;100.00;100742.06;5035580;28;20049;-71
2021/10/18 01:53:00;;;;;;;17.75;12.32;;;;;;;7.31;100.00;100741.25;5035559;28;20052;-70
2021/10/18 01:55:27;;;;;;;19.38;13.35;;;;;;;7.27;100.00;100736.97;5018077;28;20065;-71
2021/10/18 01:57:55;;;;;;;19.65;13.48;;;;;;;7.17;100.00;100734.69;5035401;28;20053;-71
2021/10/18 02:00:22;;;;;;;18.33;13.52;;;;;;;7.15;100.00;100725.88;5035354;28;20053;-71
2021/10/18 02:02:48;;;;;;;17.45;12.43;;;;;;;7.16;100.00;100727.63;5035751;28;20131;-70
2021/10/18 02:05:16;;;;;;;21.88;13.98;;;;;;;7.17;100.00;100725.84;5034358;28;20049;-70
2021/10/18 02:07:43;;;;;;;19.88;13.23;;;;;;;7.15;100.00;100730.34;5035156;28;20049;-70
2021/10/18 02:10:10;;;;;;;17.55;12.45;;;;;;;7.06;100.00;100711.19;5034105;28;20459;-70
2021/10/18 02:12:38;;;;;;;24.52;13.60;;;;;;;7.07;100.00;100723.53;5033899;28;20107;-72
2021/10/18 02:15:06;;;;;;;20.20;12.90;;;;;;;7.03;100.00;100716.59;5035458;28;20426;-69
2021/10/18 02:17:33;;;;;;;20.45;13.75;;;;;;;7.07;100.00;100720.88;5035312;28;20441;-70
2021/10/18 02:20:01;;;;;;;20.20;13.43;;;;;;;7.07;100.00;100712.03;5017452;28;20111;-70
2021/10/18 02:22:27;;;;;;;21.25;13.57;;;;;;;7.07;100.00;100712.91;5035133;28;20431;-70
2021/10/18 02:24:56;;;;;;;18.80;13.88;;;;;;;7.09;100.00;100710.22;5033874;28;20050;-71
2021/10/18 02:27:23;;;;;;;16.50;12.77;;;;;;;7.11;100.00;100716.31;5035135;28;20046;-70
2021/10/18 02:29:50;;;;;;;18.50;13.48;;;;;;;7.19;100.00;100713.34;5034021;28;20041;-71
2021/10/18 02:32:16;;;;;;;19.65;12.95;;;;;;;7.23;100.00;100716.78;5035110;28;20053;-71
2021/10/18 02:34:43;;;;;;;18.67;13.38;;;;;;;7.18;100.00;100715.16;5035276;28;20050;-71
2021/10/18 02:37:10;;;;;;;18.10;13.30;;;;;;;7.22;100.00;100720.34;5034208;28;20046;-71
2021/10/18 02:39:37;;;;;;;18.65;12.77;;;;;;;7.25;100.00;100721.09;5035020;28;20057;-71
2021/10/18 02:42:04;;;;;;;21.75;13.38;;;;;;;7.20;100.00;100715.97;5034308;28;20045;-71
2021/10/18 02:44:31;;;;;;;16.88;12.43;;;;;;;7.24;100.00;100719.38;5033946;28;20053;-71
2021/10/18 02:46:59;;;;;;;17.90;12.55;;;;;;;7.24;100.00;100722.00;5033844;28;20049;-71
2021/10/18 02:49:26;;;;;;;15.38;11.75;;;;;;;7.25;100.00;100720.25;5034847;28;20076;-71
2021/10/18 02:51:52;;;;;;;21.90;12.75;;;;;;;7.25;100.00;100712.28;5035087;28;20435;-71
2021/10/18 02:54:19;;;;;;;22.20;12.57;;;;;;;7.32;100.00;100716.44;5034747;28;20046;-71
2021/10/18 02:56:46;;;;;;;15.73;11.05;;;;;;;7.32;100.00;100711.13;5034802;28;20115;-71
2021/10/18 02:59:13;;;;;;;18.40;12.85;;;;;;;7.30;100.00;100710.31;5033738;28;20435;-71
2021/10/18 03:01:39;;;;;;;21.05;11.88;;;;;;;7.28;100.00;100718.34;5034784;28;20056;-71
2021/10/18 03:04:06;;;;;;;18.10;11.30;;;;;;;7.34;100.00;100709.25;5034057;28;20427;-70
2021/10/18 03:06:33;;;;;;;20.50;11.50;;;;;;;7.32;100.00;100713.78;5033627;28;20457;-70
2021/10/18 03:09:00;;;;;;;14.98;10.55;;;;;;;7.33;100.00;100718.16;5034631;28;20045;-71
2021/10/18 03:11:27;;;;;;;19.42;11.13;;;;;;;7.28;100.00;100710.38;5034647;28;20052;-71
2021/10/18 03:13:54;;;;;;;16.02;11.02;;;;;;;7.21;100.00;100716.84;5034714;28;20073;-70
2021/10/18 03:16:22;;;;;;;16.15;10.68;;;;;;;7.17;100.00;100716.09;5034603;28;20068;-71
2021/10/18 03:18:48;;;;;;;15.32;10.00;;;;;;;7.09;100.00;100707.56;5018792;28;20111;-70
2021/10/18 03:21:16;;;;;;;15.68;10.25;;;;;;;7.17;100.00;100723.19;5020924;28;20049;-70
2021/10/18 03:23:43;;;;;;;17.02;11.15;;;;;;;7.03;100.00;100710.44;5037493;28;20041;-70
2021/10/18 03:26:10;;;;;;;15.40;10.70;;;;;;;7.07;100.00;100712.91;5036929;28;20045;-70
2021/10/18 03:28:36;;;;;;;17.25;10.32;;;;;;;7.10;100.00;100711.06;5038211;28;20049;-70
2021/10/18 03:31:03;;;;;;;16.45;10.60;;;;;;;7.04;100.00;100704.19;5038029;28;20481;-70
2021/10/18 03:33:38;;;;;;;16.50;11.45;;;;;;;7.06;100.00;100699.69;5036895;28;20041;-70
2021/10/18 03:36:07;;;;;;;15.32;11.07;;;;;;;7.03;100.00;100705.13;5038557;28;20474;-70
2021/10/18 03:38:34;;;;;;;20.05;11.95;;;;;;;6.97;100.00;100700.06;5037603;28;20050;-70
2021/10/18 03:41:01;;;;;;;19.45;11.25;;;;;;;6.94;100.00;100703.69;5038554;28;20046;-71
2021/10/18 03:43:29;;;;;;;20.85;12.32;;;;;;;6.96;100.00;100708.94;5038062;28;20037;-71
2021/10/18 03:46:00;;;;;;;18.17;12.30;;;;;;;6.92;100.00;100703.72;5036824;28;20355;-70
2021/10/18 03:48:26;;;;;;;23.85;12.70;;;;;;;6.87;100.00;100700.38;5037768;28;20053;-71
2021/10/18 03:50:53;;;;;;;17.85;12.85;;;;;;;6.84;100.00;100689.88;5036890;28;20316;-70
2021/10/18 03:53:20;;;;;;;21.52;12.85;;;;;;;6.88;100.00;100691.50;5036643;28;20041;-69
2021/10/18 03:55:47;;;;;;;16.08;11.70;;;;;;;6.82;100.00;100691.75;5036453;28;20045;-70
2021/10/18 03:58:15;;;;;;;19.13;12.07;;;;;;;6.82;100.00;100689.09;5037482;28;20364;-70
2021/10/18 04:00:42;;;;;;;21.85;13.70;;;;;;;6.83;100.00;100685.50;5037366;28;20049;-70
2021/10/18 04:03:11;;;;;;;20.10;14.00;;;;;;;6.82;100.00;100691.75;5037474;28;20049;-71
2021/10/18 04:05:38;;;;;;;18.40;13.60;;;;;;;6.79;100.00;100679.44;5037479;28;20049;-71
2021/10/18 04:08:05;;;;;;;21.02;13.35;;;;;;;6.82;100.00;100693.50;5036469;28;20296;-70
2021/10/18 04:10:32;;;;;;;21.75;13.63;;;;;;;6.78;100.00;100693.63;5037389;28;20076;-70
2021/10/18 04:13:01;;;;;;;19.95;13.57;;;;;;;6.74;100.00;100694.66;5037153;28;20077;-71
2021/10/18 04:15:28;;;;;;;21.00;13.88;;;;;;;6.77;100.00;100701.66;5036306;28;20052;-71
2021/10/18 04:17:54;;;;;;;22.95;13.93;;;;;;;6.78;100.00;100713.97;5037382;28;20382;-71
2021/10/18 04:20:21;;;;;;;21.35;14.27;;;;;;;6.80;100.00;100714.78;5037424;28;20398;-71
2021/10/18 04:22:49;;;;;;;19.70;13.75;;;;;;;6.77;100.00;100704.31;5037038;28;20347;-70
2021/10/18 04:25:16;;;;;;;25.38;14.23;;;;;;;6.73;100.00;100715.94;5037071;28;20041;-71
2021/10/18 04:27:46;;;;;;;20.23;12.85;;;;;;;6.70;100.00;100708.09;5036213;28;20038;-70
2021/10/18 04:30:13;;;;;;;19.60;13.60;;;;;;;6.68;100.00;100708.16;5036749;28;20064;-70
2021/10/18 04:32:40;;;;;;;19.98;13.80;;;;;;;6.60;100.00;100710.22;5019289;28;20050;-70
2021/10/18 04:35:07;;;;;;;17.52;12.85;;;;;;;6.58;100.00;100706.75;5017217;28;20060;-70
2021/10/18 04:37:35;;;;;;;19.85;13.13;;;;;;;6.62;100.00;100717.19;5016576;28;20346;-72
2021/10/18 04:40:03;;;;;;;21.20;12.80;;;;;;;6.55;100.00;100709.50;5035106;28;20048;-70
2021/10/18 04:42:30;;;;;;;16.63;12.18;;;;;;;6.47;100.00;100704.47;5052278;28;20096;-70
2021/10/18 04:44:56;;;;;;;15.40;11.50;;;;;;;6.45;100.00;100714.25;5035466;28;20377;-71
2021/10/18 04:47:23;;;;;;;21.27;11.95;;;;;;;6.47;100.00;100723.03;5033594;28;20047;-71
2021/10/18 04:49:50;;;;;;;17.05;11.48;;;;;;;6.44;100.00;100729.31;5036867;28;20056;-71
2021/10/18 04:52:17;;;;;;;18.17;11.05;;;;;;;6.42;100.00;100725.00;5035149;28;20045;-70
2021/10/18 04:54:44;;;;;;;19.10;12.45;;;;;;;6.35;100.00;100722.53;5034972;28;20099;-72
2021/10/18 04:57:11;;;;;;;15.68;10.98;;;;;;;6.34;100.00;100722.59;5019896;28;20069;-72
2021/10/18 04:59:37;;;;;;;16.27;12.02;;;;;;;6.37;100.00;100733.06;5023028;28;20086;-71
2021/10/18 05:02:04;;;;;;;16.50;12.27;;;;;;;6.35;100.00;100735.81;5030679;28;20053;-71
2021/10/18 05:04:31;;;;;;;19.13;11.93;;;;;;;6.36;100.00;100736.66;5035426;28;20042;-72
2021/10/18 05:06:58;;;;;;;19.92;12.80;;;;;;;6.30;100.00;100737.75;5034837;28;20060;-72
2021/10/18 05:09:31;;;;;;;17.67;11.77;;;;;;;6.29;100.00;100733.34;5035059;28;20427;-73
2021/10/18 05:11:58;;;;;;;20.95;12.15;;;;;;;6.18;100.00;100725.78;5034973;28;20057;-72
2021/10/18 05:14:25;;;;;;;22.50;12.85;;;;;;;6.20;100.00;100733.66;5022177;28;20050;-73
2021/10/18 05:16:52;;;;;;;18.73;12.85;;;;;;;6.21;100.00;100732.75;5015071;28;20053;-71
2021/10/18 05:19:19;;;;;;;17.52;12.95;;;;;;;6.18;100.00;100727.53;5016425;28;20045;-71
2021/10/18 05:21:46;;;;;;;21.58;13.38;;;;;;;6.18;100.00;100724.88;5021622;28;20050;-71
2021/10/18 05:24:13;;;;;;;18.92;12.57;;;;;;;6.19;100.00;100734.56;5020216;28;20064;-73
2021/10/18 05:26:40;;;;;;;16.67;12.25;;;;;;;6.15;100.00;100722.34;5038284;28;20091;-72
2021/10/18 05:29:08;;;;;;;17.65;11.88;;;;;;;6.18;100.00;100724.88;5045474;28;20445;-71
2021/10/18 05:31:35;;;;;;;18.15;13.02;;;;;;;6.14;100.00;100720.63;5038171;28;20080;-68
2021/10/18 05:34:02;;;;;;;16.83;12.23;;;;;;;6.14;100.00;100724.13;5026895;28;20034;-72
2021/10/18 05:36:28;;;;;;;19.10;12.35;;;;;;;6.08;100.00;100727.88;5037408;28;20063;-71
2021/10/18 05:38:55;;;;;;;19.48;12.40;;;;;;;6.11;100.00;100729.53;5047413;28;20428;-69
2021/10/18 05:41:22;;;;;;;21.25;12.32;;;;;;;6.08;100.00;100732.28;5036307;28;20053;-72
2021/10/18 05:43:49;;;;;;;19.17;12.20;;;;;;;6.07;100.00;100723.47;5051548;28;20044;-70
2021/10/18 05:46:16;;;;;;;20.85;11.68;;;;;;;6.05;100.00;100705.91;5033961;28;20131;-71
2021/10/18 05:48:43;;;;;;;19.75;12.52;;;;;;;6.05;100.00;100711.19;5038806;28;20091;-73
2021/10/18 05:51:09;;;;;;;24.45;12.48;;;;;;;6.01;100.00;100704.22;5035140;28;20120;-73
2021/10/18 05:53:36;;;;;;;17.70;12.05;;;;;;;5.99;100.00;100706.91;5033861;28;20045;-73
2021/10/18 05:56:03;;;;;;;22.92;12.50;;;;;;;6.00;100.00;100708.69;5046170;28;20041;-73
2021/10/18 05:58:30;;;;;;;22.48;13.65;;;;;;;6.02;100.00;100721.84;5036696;28;20083;-77
2021/10/18 06:00:57;;;;;;;19.70;12.95;;;;;;;6.01;100.00;100726.31;5035337;28;20515;-74
2021/10/18 06:03:24;;;;;;;21.00;12.77;;;;;;;6.04;100.00;100720.06;5034879;28;20042;-72
2021/10/18 06:05:52;;;;;;;18.90;12.82;;;;;;;6.08;100.00;100724.34;5026781;28;20070;-72
2021/10/18 06:08:39;;;;;;;20.00;13.20;;;;;;;6.16;100.00;100726.75;5027920;28;20103;-72
2021/10/18 06:11:06;;;;;;;16.50;11.95;;;;;;;6.05;100.00;100727.94;5035337;28;20132;-71
2021/10/18 06:13:33;;;;;;;18.33;11.88;;;;;;;6.11;100.00;100727.75;5031269;28;20061;-72
2021/10/18 06:16:00;;;;;;;24.95;14.30;;;;;;;6.10;100.00;100735.78;5034139;28;20114;-71
2021/10/18 06:18:28;;;;;;;21.38;12.63;;;;;;;6.16;100.00;100732.03;5034479;28;20105;-72
2021/10/18 06:20:55;;;;;;;18.40;12.52;;;;;;;6.16;100.00;100734.69;5032727;28;20060;-70
2021/10/18 06:23:24;;;;;;;21.25;12.88;;;;;;;6.20;100.00;100733.66;5032805;28;20415;-71
2021/10/18 06:25:51;;;;;;;19.90;12.38;;;;;;;6.30;100.00;100744.81;5033127;28;20045;-72
2021/10/18 06:28:20;;;;;;;24.67;12.98;;;;;;;6.36;100.00;100739.31;5032904;28;20073;-73
2021/10/18 06:30:47;;;;;;;19.98;12.25;;;;;;;6.45;100.00;100746.97;5033064;28;20439;-71
2021/10/18 06:33:15;;;;;;;19.50;13.85;;;;;;;6.44;100.00;100741.69;5033507;28;20207;-72
2021/10/18 06:35:42;;;;;;;18.25;12.23;;;;;;;6.51;100.00;100751.19;5034567;28;20076;-73
2021/10/18 06:38:14;;;;;;;18.20;12.32;;;;;;;6.57;100.00;100755.41;5027852;28;20104;-74
2021/10/18 06:40:42;;;;;;;20.65;12.55;;;;;;;6.59;100.00;100750.91;5025694;28;20104;-71
2021/10/18 06:43:09;;;;;;;21.58;13.13;;;;;;;6.68;100.00;100757.66;5024146;28;20041;-73
2021/10/18 06:45:36;;;;;;;18.67;12.82;;;;;;;6.73;100.00;100761.91;5025584;28;20347;-73
2021/10/18 06:48:07;;;;;;;20.67;13.18;;;;;;;6.75;100.00;100760.06;5022278;28;20041;-71
2021/10/18 06:50:35;;;;;;;23.05;13.15;;;;;;;6.83;100.00;100764.22;5027081;28;20370;-75
2021/10/18 06:53:03;;;;;;;16.38;12.38;;;;;;;6.87;100.00;100757.91;5026040;28;20164;-74
2021/10/18 06:55:30;;;;;;;18.42;12.48;;;;;;;7.00;100.00;100758.31;5032393;28;20052;-75
2021/10/18 06:57:57;;;;;;;22.67;13.05;;;;;;;7.07;100.00;100765.13;5036174;28;20045;-73
2021/10/18 07:00:24;;;;;;;19.35;13.25;;;;;;;7.10;100.00;100757.06;5036882;28;20046;-71
2021/10/18 07:02:51;;;;;;;19.85;12.52;;;;;;;7.13;100.00;100759.59;5030963;28;20045;-75
2021/10/18 07:05:17;;;;;;;22.10;13.00;;;;;;;7.23;100.00;100756.63;5023569;28;20164;-74
2021/10/18 07:07:44;;;;;;;21.33;14.15;;;;;;;7.29;100.00;100761.66;5019740;28;20049;-75
2021/10/18 07:10:11;;;;;;;17.98;12.88;;;;;;;7.32;100.00;100751.78;5034737;28;20038;-76
2021/10/18 07:12:38;;;;;;;21.48;13.30;;;;;;;7.47;100.00;100766.28;5026842;28;20057;-75
2021/10/18 07:15:06;;;;;;;22.88;13.57;;;;;;;7.57;100.00;100760.63;5010924;28;20359;-72
2021/10/18 07:17:35;;;;;;;23.02;13.82;;;;;;;7.65;100.00;100752.34;5018627;28;20045;-72
2021/10/18 07:20:04;;;;;;;24.70;13.50;;;;;;;7.75;100.00;100743.94;5033021;28;20042;-72
2021/10/18 07:22:41;;;;;;;19.70;12.68;;;;;;;7.98;100.00;100752.81;5036561;28;20046;-72
2021/10/18 07:25:08;;;;;;;16.83;12.20;;;;;;;8.12;100.00;100759.34;5036187;28;20049;-73
2021/10/18 07:27:35;;;;;;;20.52;12.88;;;;;;;8.30;100.00;100752.41;5036409;28;20037;-73
2021/10/18 07:30:03;;;;;;;19.45;12.05;;;;;;;8.41;99.03;100754.59;5035129;28;20125;-72
2021/10/18 07:32:30;;;;;;;19.75;12.10;;;;;;;8.47;98.59;100751.69;5035522;28;20053;-72
2021/10/18 07:34:58;;;;;;;16.85;12.18;;;;;;;8.63;96.75;100753.72;5037074;28;20445;-71
2021/10/18 07:37:29;;;;;;;19.52;12.75;;;;;;;8.72;95.09;100755.97;5037067;28;20435;-71
2021/10/18 07:39:56;;;;;;;19.30;12.40;;;;;;;8.90;93.44;100766.75;5036964;28;20049;-71
2021/10/18 07:42:23;;;;;;;18.67;12.23;;;;;;;8.95;93.09;100764.75;5037923;28;20374;-71
2021/10/18 07:44:50;;;;;;;18.17;13.63;;;;;;;9.09;92.26;100767.66;5037882;28;20049;-71
2021/10/18 07:47:17;;;;;;;14.95;11.48;;;;;;;9.16;92.20;100762.06;5034667;28;20315;-71
2021/10/18 07:49:44;;;;;;;15.30;10.77;;;;;;;9.24;91.40;100767.88;5037546;28;20071;-71
2021/10/18 07:52:15;;;;;;;16.75;11.27;;;;;;;9.30;90.72;100769.38;5037584;28;20049;-71
2021/10/18 07:54:44;;;;;;;15.95;11.70;;;;;;;9.38;90.54;100768.09;5036788;28;20042;-71
2021/10/18 07:57:11;;;;;;;19.73;12.35;;;;;;;9.34;90.50;100765.66;5036564;28;20044;-71
2021/10/18 07:59:38;;;;;;;17.30;11.27;;;;;;;9.41;90.72;100779.59;5036023;28;20050;-71
2021/10/18 08:02:05;;;;;;;14.90;10.32;;;;;;;9.44;90.61;100780.31;5037533;28;20347;-70
2021/10/18 08:04:32;;;;;;;15.57;11.40;;;;;;;9.47;90.65;100776.59;5036563;28;20065;-71
2021/10/18 08:06:58;;;;;;;18.08;11.05;;;;;;;9.52;90.58;100779.94;5036175;28;20091;-73
2021/10/18 08:09:26;;;;;;;15.93;11.00;;;;;;;9.54;91.12;100777.19;5037217;28;20041;-72
2021/10/18 08:11:54;;;;;;;19.67;11.20;;;;;;;9.55;90.87;100771.81;5036255;28;20057;-73
2021/10/18 08:14:21;;;;;;;16.05;11.02;;;;;;;9.69;89.55;100771.13;5036061;28;20061;-71
2021/10/18 08:16:48;;;;;;;15.43;11.30;;;;;;;9.71;89.78;100771.06;5037193;28;20046;-72
2021/10/18 08:19:15;;;;;;;20.13;11.02;;;;;;;9.77;89.42;100778.78;5036749;28;20076;-73
2021/10/18 08:21:42;;;;;;;18.95;11.23;;;;;;;9.97;87.53;100779.63;5035770;28;20118;-76
2021/10/18 08:24:09;;;;;;;16.10;11.20;;;;;;;10.00;86.68;100776.78;5037130;28;20387;-72
2021/10/18 08:26:36;;;;;;;16.50;10.50;;;;;;;10.07;87.50;100772.88;5036312;28;20041;-71
2021/10/18 08:29:05;;;;;;;18.88;10.20;;;;;;;10.23;85.08;100774.81;5037127;28;20045;-75
2021/10/18 08:31:32;;;;;;;12.32;9.45;;;;;;;10.25;86.18;100776.44;5033517;28;20096;-73
2021/10/18 08:34:00;;;;;;;14.05;10.23;;;;;;;10.36;85.43;100775.94;5027640;28;20069;-72
2021/10/18 08:36:27;;;;;;;12.57;9.70;;;;;;;10.39;85.62;100774.88;5032066;28;20055;-73
2021/10/18 08:38:57;;;;;;;16.48;9.30;;;;;;;10.44;85.93;100772.88;5037033;28;20323;-72
2021/10/18 08:41:38;;;;;;;21.73;10.25;;;;;;;10.41;85.60;100757.00;5036698;28;20324;-73
2021/10/18 08:44:16;;;;;;;15.43;8.82;;;;;;;10.72;83.84;100771.47;5037048;28;20067;-73
2021/10/18 08:46:47;;;;;;;15.48;9.57;;;;;;;10.79;84.17;100772.03;5036591;28;20038;-71
2021/10/18 08:49:13;;;;;;;;;;;;;;;10.97;82.61;100765.72;5036771;28;20041;-73
2021/10/18 08:51:40;;;;;;;11.68;8.20;;;;;;;11.04;81.72;100776.06;5036339;28;19936;-73
2021/10/18 08:54:09;;;;;;;20.13;9.48;;;;;;;11.16;81.08;100779.91;5035752;28;20091;-74
2021/10/18 08:56:50;;;;;;;17.75;8.73;;;;;;;11.25;79.84;100774.94;5034528;28;20134;-73
2021/10/18 08:59:19;;;;;;;14.93;8.52;;;;;;;11.42;79.74;100775.81;5035995;28;20340;-71
2021/10/18 09:01:48;;;;;;;11.18;8.35;;;;;;;11.60;78.19;100773.06;5035105;28;20435;-72
2021/10/18 09:04:29;;;;;;;12.38;8.30;;;;;;;11.71;76.72;100781.34;5036291;28;20034;-73
2021/10/18 09:06:59;;;;;;;12.77;7.97;;;;;;;11.82;76.29;100784.28;5036020;28;20049;-72
2021/10/18 09:09:28;;;;;;;15.65;8.25;;;;;;;11.93;75.49;100774.81;5036042;28;20053;-72
2021/10/18 09:11:58;;;;;;;11.90;8.30;;;;;;;12.02;75.23;100787.66;5036087;28;20044;-73
2021/10/18 09:14:26;;;;;;;12.85;7.22;;;;;;;11.95;76.50;100762.19;5034815;28;20053;-73
2021/10/18 09:17:01;;;;;;;10.40;7.55;;;;;;;12.07;75.89;100772.22;5033341;28;20120;-74
2021/10/18 09:19:28;;;;;;;11.95;7.43;;;;;;;12.16;74.21;100784.19;5034970;28;20449;-75
2021/10/18 09:22:02;;;;;;;12.13;7.50;;;;;;;12.19;74.96;100776.00;5034409;28;20049;-70
2021/10/18 09:24:28;;;;;;;11.57;6.90;;;;;;;12.29;74.67;100780.81;5017723;28;20056;-73
2021/10/18 09:27:00;;;;;;;12.68;7.50;;;;;;;12.31;74.25;100777.09;5035830;28;20045;-75
2021/10/18 09:29:45;;;;;;;12.18;7.22;;;;;;;12.38;73.57;100774.06;5035922;28;20095;-74
2021/10/18 09:32:29;;;;;;;13.45;7.10;;;;;;;12.49;72.39;100775.16;5035534;28;20733;-74
2021/10/18 09:35:11;;;;;;;11.70;7.00;;;;;;;12.53;73.36;100778.50;5034613;28;20048;-74
2021/10/18 09:37:44;;;;;;;16.40;7.47;;;;;;;12.81;71.44;100776.84;5035456;28;20124;-75
2021/10/18 09:40:35;;;;;;;12.00;6.90;;;;;;;12.90;73.43;100775.41;5014849;28;20052;-72
2021/10/18 09:43:19;;;;;;;11.80;7.22;;;;;;;12.92;70.96;100757.47;5015581;28;20038;-72
2021/10/18 09:46:36;;;;;;;10.23;6.93;;;;;;;13.18;71.88;100776.41;5032126;28;20064;-72
2021/10/18 10:51:18;;;;;;;7.75;5.40;;;;;;;14.66;67.70;100740.06;5049226;28;20116;-79
2021/10/18 10:53:48;;;;;;;8.43;5.22;;;;;;;14.83;64.32;100730.84;5043335;28;20069;-76
2021/10/18 10:56:47;;;;;;;8.20;5.30;;;;;;;14.93;64.43;100741.81;5033278;28;20111;-74
2021/10/18 10:59:24;;;;;;;6.95;4.80;;;;;;;15.06;63.25;100731.91;5028414;28;20066;-72
2021/10/18 11:01:53;;;;;;;5.43;4.45;;;;;;;15.17;61.73;100728.47;5034777;28;20453;-70
2021/10/18 11:04:31;;;;;;;9.73;5.25;;;;;;;15.24;62.16;100722.66;5040386;28;20045;-70
2021/10/18 11:07:10;;;;;;;7.40;4.13;;;;;;;15.32;62.68;100726.47;5048448;28;20111;-71
2021/10/18 11:09:53;;;;;;;5.80;4.07;;;;;;;15.44;61.00;100721.19;5045568;28;20049;-74
2021/10/18 11:12:26;;;;;;;8.60;3.97;;;;;;;15.54;59.67;100726.75;5046424;28;20044;-72
2021/10/18 11:15:09;;;;;;;7.93;4.00;;;;;;;15.55;60.72;100721.28;5048205;28;20132;-75
2021/10/18 11:17:44;;;;;;;7.45;3.97;;;;;;;15.67;58.17;100719.50;5039206;28;20048;-74
2021/10/18 11:20:14;;;;;;;6.57;3.70;;;;;;;15.73;58.25;100735.19;5044447;28;20086;-76
2021/10/18 11:22:47;;;;;;;4.20;3.25;;;;;;;15.85;58.48;100725.34;5036992;28;20052;-75
2021/10/18 11:25:18;;;;;;;7.90;3.58;;;;;;;15.97;57.63;100718.22;5032277;28;20137;-80
2021/10/18 11:27:50;;;;;;;6.50;4.03;;;;;;;15.98;58.75;100705.63;5033170;28;20091;-76
2021/10/18 11:30:19;;;;;;;6.38;3.75;;;;;;;16.22;57.76;100719.06;5020512;28;20053;-73
2021/10/18 11:32:56;;;;;;;4.32;3.63;;;;;;;16.40;55.95;100714.09;5036119;28;20041;-73
2021/10/18 11:35:24;;;;;;;5.90;3.42;;;;;;;16.37;56.78;100706.25;5047031;28;20430;-73
2021/10/18 11:37:54;;;;;;;6.10;3.33;;;;;;;16.37;57.71;100702.69;5030965;28;20045;-75
2021/10/18 11:40:24;;;;;;;8.60;3.20;;;;;;;16.28;58.75;100702.44;5035831;28;20072;-75
2021/10/18 11:42:58;;;;;;;5.47;3.03;;;;;;;16.09;59.73;100703.00;5036018;28;20278;-74
2021/10/18 11:45:29;;;;;;;7.13;3.50;;;;;;;15.90;60.95;100708.84;5024983;28;20427;-73
2021/10/18 11:48:05;;;;;;;6.20;3.03;;;;;;;15.84;62.53;100701.22;5032465;28;20049;-76
2021/10/18 11:50:36;;;;;;;6.80;3.38;;;;;;;15.96;62.35;100691.44;5035548;28;20043;-73
2021/10/18 11:53:43;;;;;;;6.88;3.20;;;;;;;16.09;59.71;100686.84;5049904;28;20040;-75
2021/10/18 11:56:18;;;;;;;6.55;3.08;;;;;;;16.19;59.69;100678.03;5034385;28;20040;-74
2021/10/18 11:58:44;;;;;;;6.68;3.00;;;;;;;16.37;56.71;100682.03;5046463;28;20338;-75
2021/10/18 12:01:18;;;;;;;6.07;3.10;;;;;;;16.45;57.02;100676.00;5033293;28;20045;-74
2021/10/18 12:03:45;;;;;;;8.07;3.30;;;;;;;16.55;55.32;100665.38;5034951;28;20069;-76
2021/10/18 12:06:12;;;;;;;5.10;3.15;;;;;;;16.52;56.83;100663.78;5036688;28;20044;-74
2021/10/18 12:08:43;;;;;;;7.57;3.13;;;;;;;16.72;56.12;100661.34;5036750;28;20076;-75
2021/10/18 12:11:15;;;;;;;8.13;2.95;;;;;;;16.80;54.27;100649.97;5037056;28;20069;-76
2021/10/18 12:13:43;;;;;;;5.95;2.95;;;;;;;16.92;55.87;100657.09;5036716;28;20045;-75
2021/10/18 12:16:20;;;;;;;4.18;2.35;;;;;;;17.00;55.62;100650.22;5035402;28;20042;-75
2021/10/18 12:18:50;;;;;;;5.82;3.55;;;;;;;17.00;54.74;100653.75;5039031;28;20077;-75
2021/10/18 12:21:31;;;;;;;6.22;3.00;;;;;;;17.14;56.37;100659.91;5035660;28;20041;-75
2021/10/18 12:24:00;;;;;;;4.47;2.67;;;;;;;17.09;55.55;100652.19;5030323;28;20049;-74